createdAt,value
2019-06-27T00:00:31.689Z,57.33
2019-06-27T00:03:01.705Z,57.29
2019-06-27T00:05:31.315Z,57.39
2019-06-27T00:08:01.882Z,57.94
2019-06-27T00:10:34.282Z,57.44
2019-06-27T00:13:03.330Z,56.29
2019-06-27T00:15:32.958Z,56.97
2019-06-27T00:18:02.526Z,56.48
2019-06-27T00:20:32.130Z,56.13
2019-06-27T00:23:01.689Z,56.62
2019-06-27T00:25:31.496Z,56.08
2019-06-27T00:28:01.011Z,55.86
2019-06-27T00:30:30.621Z,53.25
2019-06-27T00:33:00.364Z,50.74
2019-06-27T00:35:29.872Z,50.81
2019-06-27T00:37:59.396Z,50.65
2019-06-27T00:40:28.857Z,50.37
2019-06-27T00:42:58.435Z,49.60
2019-06-27T00:45:27.876Z,49.71
2019-06-27T00:47:57.421Z,49.64
2019-06-27T00:50:27.130Z,49.70
2019-06-27T00:52:56.624Z,50.80
2019-06-27T00:55:26.208Z,50.88
2019-06-27T00:57:55.746Z,50.35
2019-06-27T01:00:25.504Z,48.67
2019-06-27T01:02:55.091Z,48.48
2019-06-27T01:05:24.773Z,48.60
2019-06-27T01:07:54.565Z,48.05
2019-06-27T01:10:24.528Z,47.90
2019-06-27T01:12:54.356Z,47.33
2019-06-27T01:15:24.058Z,46.58
2019-06-27T01:17:53.625Z,47.31
2019-06-27T01:20:23.248Z,47.03
2019-06-27T01:22:52.836Z,45.41
2019-06-27T01:25:22.448Z,45.29
2019-06-27T01:27:52.575Z,46.28
2019-06-27T01:30:22.396Z,45.57
2019-06-27T01:32:51.989Z,44.68
2019-06-27T01:35:21.515Z,43.90
2019-06-27T01:37:51.190Z,44.28
2019-06-27T01:40:20.844Z,43.22
2019-06-27T01:42:50.427Z,43.50
2019-06-27T01:45:27.602Z,44.66
2019-06-27T01:47:57.533Z,43.82
2019-06-27T01:50:27.165Z,43.34
2019-06-27T01:52:57.349Z,44.04
2019-06-27T01:55:27.102Z,42.93
2019-06-27T01:57:58.415Z,43.00
2019-06-27T02:00:28.395Z,43.29
2019-06-27T02:02:58.035Z,44.24
2019-06-27T02:05:27.459Z,43.86
2019-06-27T02:07:57.445Z,44.18
2019-06-27T02:10:27.943Z,44.44
2019-06-27T02:12:57.813Z,45.62
2019-06-27T02:15:27.731Z,45.09
2019-06-27T02:17:57.348Z,45.81
2019-06-27T02:20:27.027Z,44.83
2019-06-27T02:22:56.595Z,45.28
2019-06-27T02:25:26.104Z,46.02
2019-06-27T02:28:03.840Z,45.95
2019-06-27T02:30:38.701Z,46.57
2019-06-27T02:33:08.369Z,46.44
2019-06-27T02:35:38.116Z,46.66
2019-06-27T02:38:07.928Z,46.54
2019-06-27T02:40:37.482Z,46.69
2019-06-27T02:43:07.065Z,47.34
2019-06-27T02:45:36.502Z,46.70
2019-06-27T02:48:06.029Z,47.91
2019-06-27T02:50:35.610Z,47.53
2019-06-27T02:53:05.104Z,47.92
2019-06-27T02:55:34.668Z,48.14
2019-06-27T02:58:27.606Z,48.03
2019-06-27T03:00:36.030Z,48.45
2019-06-27T03:03:05.520Z,49.67
2019-06-27T03:05:35.145Z,48.89
2019-06-27T03:08:04.715Z,49.30
2019-06-27T03:10:34.439Z,50.83
2019-06-27T03:13:04.557Z,50.20
2019-06-27T03:15:34.326Z,50.33
2019-06-27T03:18:03.822Z,50.04
2019-06-27T03:20:33.328Z,50.04
2019-06-27T03:23:03.051Z,51.27
2019-06-27T03:25:32.573Z,49.99
2019-06-27T03:28:01.986Z,51.20
2019-06-27T03:30:31.610Z,51.47
2019-06-27T03:33:01.809Z,52.25
2019-06-27T03:35:31.436Z,51.14
2019-06-27T03:38:01.320Z,52.47
2019-06-27T03:40:30.853Z,51.96
2019-06-27T03:43:00.490Z,52.53
2019-06-27T03:45:29.957Z,53.13
2019-06-27T03:47:59.443Z,53.70
2019-06-27T03:50:29.165Z,54.46
2019-06-27T03:52:58.644Z,54.70
2019-06-27T03:55:28.117Z,55.17
2019-06-27T03:57:57.671Z,55.40
2019-06-27T04:00:34.031Z,56.67
2019-06-27T04:03:03.492Z,56.28
2019-06-27T04:05:32.956Z,57.38
2019-06-27T04:08:02.481Z,57.42
2019-06-27T04:10:31.975Z,56.99
2019-06-27T04:13:01.642Z,57.37
2019-06-27T04:15:31.162Z,58.15
2019-06-27T04:18:00.779Z,58.87
2019-06-27T04:20:30.394Z,59.33
2019-06-27T04:22:59.923Z,60.10
2019-06-27T04:25:29.749Z,59.61
2019-06-27T04:28:00.263Z,60.76
2019-06-27T04:30:30.163Z,60.25
2019-06-27T04:32:59.568Z,60.23
2019-06-27T04:35:29.264Z,60.91
2019-06-27T04:37:58.744Z,61.35
2019-06-27T04:40:28.197Z,61.45
2019-06-27T04:42:57.659Z,60.79
2019-06-27T04:45:27.107Z,60.73
2019-06-27T04:47:56.817Z,60.99
2019-06-27T04:50:26.325Z,62.31
2019-06-27T04:52:55.773Z,61.76
2019-06-27T04:55:25.198Z,60.80
2019-06-27T04:57:54.664Z,60.52
2019-06-27T05:00:30.836Z,61.45
2019-06-27T05:03:00.552Z,61.48
2019-06-27T05:05:29.935Z,62.53
2019-06-27T05:07:59.409Z,62.00
2019-06-27T05:10:29.024Z,62.96
2019-06-27T05:12:58.481Z,62.53
2019-06-27T05:15:28.161Z,63.28
2019-06-27T05:17:57.620Z,63.34
2019-06-27T05:20:46.624Z,63.63
2019-06-27T05:23:16.078Z,63.33
2019-06-27T05:25:45.534Z,64.05
2019-06-27T05:28:15.024Z,64.21
2019-06-27T05:30:44.747Z,64.35
2019-06-27T05:33:14.210Z,64.62
2019-06-27T05:35:43.774Z,64.18
2019-06-27T05:38:13.300Z,63.37
2019-06-27T05:40:42.751Z,63.65
2019-06-27T05:43:12.244Z,63.82
2019-06-27T05:45:41.702Z,63.21
2019-06-27T05:48:11.172Z,60.66
2019-06-27T05:50:40.633Z,58.64
2019-06-27T05:53:10.164Z,57.62
2019-06-27T05:55:39.677Z,54.93
2019-06-27T05:58:09.095Z,52.38
2019-06-27T06:00:38.552Z,51.95
2019-06-27T06:03:08.035Z,51.17
2019-06-27T06:05:37.513Z,50.53
2019-06-27T06:08:06.974Z,49.23
2019-06-27T06:10:36.679Z,48.36
2019-06-27T06:13:06.146Z,47.65
2019-06-27T06:15:35.655Z,47.55
2019-06-27T06:18:05.139Z,47.91
2019-06-27T06:20:34.651Z,48.27
2019-06-27T06:23:04.178Z,51.42
2019-06-27T06:25:33.701Z,53.73
2019-06-27T06:28:03.323Z,52.42
2019-06-27T06:30:43.854Z,50.94
2019-06-27T06:33:04.179Z,47.79
2019-06-27T06:35:33.670Z,47.10
2019-06-27T06:38:03.486Z,45.68
2019-06-27T06:40:32.949Z,45.89
2019-06-27T06:43:02.437Z,43.79
2019-06-27T06:45:32.124Z,41.33
2019-06-27T06:48:01.707Z,42.23
2019-06-27T06:50:31.147Z,39.27
2019-06-27T06:53:01.465Z,40.21
2019-06-27T06:55:31.351Z,40.46
2019-06-27T06:58:01.316Z,41.57
2019-06-27T07:00:31.008Z,41.68
2019-06-27T07:03:00.470Z,41.05
2019-06-27T07:05:29.955Z,40.43
2019-06-27T07:07:59.414Z,39.75
2019-06-27T07:10:28.862Z,40.55
2019-06-27T07:12:58.579Z,39.11
2019-06-27T07:15:28.111Z,40.41
2019-06-27T07:17:57.660Z,38.86
2019-06-27T07:20:27.363Z,37.63
2019-06-27T07:22:56.815Z,38.62
2019-06-27T07:25:26.289Z,38.03
2019-06-27T07:27:55.994Z,37.20
2019-06-27T07:30:25.749Z,36.64
2019-06-27T07:32:55.220Z,36.38
2019-06-27T07:35:24.680Z,34.38
2019-06-27T07:37:54.160Z,35.04
2019-06-27T07:40:23.613Z,33.90
2019-06-27T07:42:53.119Z,32.45
2019-06-27T07:45:22.599Z,32.77
2019-06-27T07:47:52.146Z,33.28
2019-06-27T07:50:21.630Z,31.97
2019-06-27T07:52:51.132Z,32.65
2019-06-27T07:55:22.786Z,31.93
2019-06-27T07:57:52.581Z,31.98
2019-06-27T08:00:22.792Z,33.19
2019-06-27T08:02:52.251Z,33.70
2019-06-27T08:05:21.691Z,32.77
2019-06-27T08:07:51.521Z,32.14
2019-06-27T08:10:20.945Z,32.31
2019-06-27T08:12:50.582Z,32.89
2019-06-27T08:15:20.051Z,32.11
2019-06-27T08:17:49.499Z,31.93
2019-06-27T08:20:19.289Z,31.90
2019-06-27T08:22:48.766Z,31.76
2019-06-27T08:25:18.367Z,30.18
2019-06-27T08:27:47.771Z,30.09
2019-06-27T08:30:17.552Z,30.83
2019-06-27T08:32:47.011Z,31.19
2019-06-27T08:35:16.492Z,31.36
2019-06-27T08:37:46.106Z,30.58
2019-06-27T08:40:15.659Z,30.66
2019-06-27T08:42:45.104Z,29.75
2019-06-27T08:45:14.692Z,28.98
2019-06-27T08:47:44.198Z,29.52
2019-06-27T08:50:13.981Z,30.43
2019-06-27T08:52:43.520Z,32.77
2019-06-27T08:55:13.099Z,31.29
2019-06-27T08:57:42.587Z,32.13
2019-06-27T09:00:13.709Z,32.26
2019-06-27T09:02:43.165Z,31.76
2019-06-27T09:05:13.464Z,31.89
2019-06-27T09:07:43.222Z,30.51
2019-06-27T09:10:12.805Z,29.56
2019-06-27T09:12:42.320Z,29.02
2019-06-27T09:15:12.920Z,28.67
2019-06-27T09:17:42.384Z,28.88
2019-06-27T09:20:13.215Z,29.08
2019-06-27T09:22:42.738Z,29.31
2019-06-27T09:25:12.461Z,29.59
2019-06-27T09:27:42.419Z,28.45
2019-06-27T09:30:12.188Z,27.63
2019-06-27T09:32:41.822Z,28.48
2019-06-27T09:35:11.701Z,26.08
2019-06-27T09:37:41.144Z,28.92
2019-06-27T09:40:10.857Z,28.19
2019-06-27T09:42:40.578Z,26.65
2019-06-27T09:45:11.422Z,27.07
2019-06-27T09:47:40.889Z,25.59
2019-06-27T09:50:10.347Z,26.97
2019-06-27T09:52:39.801Z,26.14
2019-06-27T09:55:09.551Z,26.32
2019-06-27T09:57:39.002Z,27.51
2019-06-27T10:00:11.951Z,25.15
2019-06-27T10:02:42.851Z,26.33
2019-06-27T10:05:12.625Z,25.59
2019-06-27T10:07:42.066Z,26.20
2019-06-27T10:10:11.715Z,26.33
2019-06-27T10:12:43.170Z,24.05
2019-06-27T10:15:12.698Z,24.42
2019-06-27T10:17:42.158Z,25.17
2019-06-27T10:20:12.450Z,26.03
2019-06-27T10:22:41.918Z,25.21
2019-06-27T10:25:11.510Z,26.22
2019-06-27T10:27:41.071Z,26.15
2019-06-27T10:30:10.927Z,25.37
2019-06-27T10:32:40.360Z,26.02
2019-06-27T10:35:10.059Z,26.14
2019-06-27T10:37:39.542Z,26.71
2019-06-27T10:40:09.224Z,25.84
2019-06-27T10:42:38.702Z,26.59
2019-06-27T10:45:08.218Z,25.72
2019-06-27T10:47:38.128Z,24.47
2019-06-27T10:50:08.293Z,24.97
2019-06-27T10:52:37.795Z,24.05
2019-06-27T10:55:07.231Z,24.12
2019-06-27T10:57:36.722Z,23.05
2019-06-27T11:00:07.202Z,23.91
2019-06-27T11:02:36.720Z,24.33
2019-06-27T11:05:07.319Z,23.21
2019-06-27T11:07:40.558Z,23.38
2019-06-27T11:10:08.643Z,23.49
2019-06-27T11:12:38.159Z,22.57
2019-06-27T11:15:08.990Z,22.74
2019-06-27T11:17:38.450Z,24.09
2019-06-27T11:20:08.735Z,23.22
2019-06-27T11:22:38.237Z,23.86
2019-06-27T11:25:08.416Z,23.83
2019-06-27T11:27:37.859Z,22.78
2019-06-27T11:30:08.620Z,23.46
2019-06-27T11:32:38.117Z,22.60
2019-06-27T11:35:07.951Z,23.38
2019-06-27T11:37:37.518Z,22.03
2019-06-27T11:40:11.997Z,20.06
2019-06-27T11:42:40.201Z,20.95
2019-06-27T11:45:09.722Z,22.13
2019-06-27T11:47:39.348Z,21.98
2019-06-27T11:50:08.870Z,22.64
2019-06-27T11:52:38.495Z,20.89
2019-06-27T11:55:08.355Z,20.73
2019-06-27T11:57:37.842Z,21.51
2019-06-27T12:00:07.680Z,21.70
2019-06-27T12:02:37.250Z,20.62
2019-06-27T12:05:07.225Z,19.00
2019-06-27T12:07:37.113Z,20.08
2019-06-27T12:10:07.301Z,19.50
2019-06-27T12:12:37.152Z,18.73
2019-06-27T12:15:07.446Z,20.41
2019-06-27T12:17:37.027Z,19.32
2019-06-27T12:20:08.144Z,21.11
2019-06-27T12:22:37.595Z,20.64
2019-06-27T12:25:07.234Z,21.70
2019-06-27T12:27:36.723Z,21.09
2019-06-27T12:30:08.984Z,21.16
2019-06-27T12:32:50.903Z,21.14
2019-06-27T12:35:10.662Z,21.92
2019-06-27T12:37:40.303Z,20.80
2019-06-27T12:40:10.599Z,20.61
2019-06-27T12:42:40.156Z,20.28
2019-06-27T12:45:10.734Z,19.99
2019-06-27T12:47:40.259Z,20.60
2019-06-27T12:50:11.024Z,20.21
2019-06-27T12:52:40.507Z,20.54
2019-06-27T12:55:10.116Z,19.55
2019-06-27T12:57:39.640Z,19.68
2019-06-27T13:00:09.554Z,21.31
2019-06-27T13:02:39.189Z,21.01
2019-06-27T13:05:08.865Z,22.61
2019-06-27T13:07:38.320Z,20.01
2019-06-27T13:10:08.237Z,21.03
2019-06-27T13:12:37.713Z,21.97
2019-06-27T13:15:07.814Z,20.20
2019-06-27T13:17:37.348Z,19.99
2019-06-27T13:20:07.974Z,21.90
2019-06-27T13:22:37.434Z,22.36
2019-06-27T13:25:07.125Z,22.49
2019-06-27T13:27:36.644Z,19.44
2019-06-27T13:30:08.551Z,19.16
2019-06-27T13:32:38.041Z,21.03
2019-06-27T13:35:07.599Z,21.60
2019-06-27T13:37:37.067Z,21.69
2019-06-27T13:40:06.956Z,22.38
2019-06-27T13:42:38.469Z,20.98
2019-06-27T13:45:08.592Z,21.57
2019-06-27T13:47:38.079Z,20.12
2019-06-27T13:50:08.076Z,20.33
2019-06-27T13:52:37.525Z,20.30
2019-06-27T13:55:07.108Z,21.72
2019-06-27T13:57:36.574Z,22.88
2019-06-27T14:00:07.629Z,22.36
2019-06-27T14:02:37.221Z,21.94
2019-06-27T14:05:08.235Z,22.85
2019-06-27T14:07:38.036Z,21.78
2019-06-27T14:10:08.067Z,21.02
2019-06-27T14:12:37.760Z,22.30
2019-06-27T14:15:08.171Z,20.69
2019-06-27T14:17:37.665Z,20.87
2019-06-27T14:20:07.539Z,21.75
2019-06-27T14:22:36.990Z,20.84
2019-06-27T14:25:06.631Z,21.78
2019-06-27T14:27:36.119Z,20.66
2019-06-27T14:30:09.533Z,20.65
2019-06-27T14:32:39.186Z,21.71
2019-06-27T14:35:15.771Z,21.88
2019-06-27T14:37:40.020Z,22.15
2019-06-27T14:40:09.842Z,23.39
2019-06-27T14:42:39.284Z,22.66
2019-06-27T14:45:08.861Z,23.71
2019-06-27T14:47:38.377Z,22.29
2019-06-27T14:50:07.910Z,23.11
2019-06-27T14:52:37.398Z,23.13
2019-06-27T14:55:07.798Z,23.09
2019-06-27T14:57:37.267Z,23.47
2019-06-27T15:00:07.997Z,21.59
2019-06-27T15:02:37.791Z,21.42
2019-06-27T15:05:07.675Z,21.89
2019-06-27T15:07:37.120Z,23.73
2019-06-27T15:10:07.064Z,22.64
2019-06-27T15:12:36.518Z,21.92
2019-06-27T15:15:06.540Z,22.22
2019-06-27T15:17:36.267Z,22.92
2019-06-27T15:20:08.581Z,23.23
2019-06-27T15:22:38.034Z,24.13
2019-06-27T15:25:11.827Z,23.55
2019-06-27T15:27:41.328Z,24.38
2019-06-27T15:30:11.172Z,23.47
2019-06-27T15:32:40.695Z,23.03
2019-06-27T15:35:10.338Z,23.15
2019-06-27T15:37:39.753Z,24.05
2019-06-27T15:40:09.584Z,24.18
2019-06-27T15:42:39.033Z,24.22
2019-06-27T15:45:09.333Z,24.40
2019-06-27T15:47:38.821Z,24.44
2019-06-27T15:50:09.123Z,24.33
2019-06-27T15:52:38.593Z,25.28
2019-06-27T15:55:11.854Z,25.07
2019-06-27T15:57:40.436Z,25.34
2019-06-27T16:00:10.259Z,25.02
2019-06-27T16:02:39.965Z,25.44
2019-06-27T16:05:10.314Z,25.85
2019-06-27T16:07:39.825Z,25.24
2019-06-27T16:10:20.439Z,25.29
2019-06-27T16:12:56.180Z,25.44
2019-06-27T16:15:29.282Z,26.45
2019-06-27T16:18:01.969Z,26.11
2019-06-27T16:20:35.386Z,26.29
2019-06-27T16:23:10.432Z,26.07
2019-06-27T16:25:44.737Z,25.60
2019-06-27T16:28:16.692Z,25.68
2019-06-27T16:30:47.795Z,26.34
2019-06-27T16:33:17.261Z,24.96
2019-06-27T16:35:47.041Z,25.58
2019-06-27T16:38:16.895Z,26.28
2019-06-27T16:40:46.567Z,26.28
2019-06-27T16:43:16.004Z,25.53
2019-06-27T16:45:45.742Z,25.49
2019-06-27T16:48:15.348Z,25.96
2019-06-27T16:50:44.785Z,25.73
2019-06-27T16:53:14.537Z,26.10
2019-06-27T16:55:43.998Z,25.68
2019-06-27T16:58:13.463Z,25.98
2019-06-27T17:00:43.547Z,26.80
2019-06-27T17:03:13.024Z,27.43
2019-06-27T17:05:42.490Z,26.88
2019-06-27T17:08:11.963Z,26.93
2019-06-27T17:10:41.650Z,27.88
2019-06-27T17:13:11.733Z,27.65
2019-06-27T17:15:41.457Z,27.88
2019-06-27T17:18:13.941Z,28.62
2019-06-27T17:20:43.628Z,27.98
2019-06-27T17:23:13.074Z,28.27
2019-06-27T17:25:42.565Z,29.51
2019-06-27T17:28:12.164Z,29.93
2019-06-27T17:30:41.799Z,30.55
2019-06-27T17:33:11.608Z,30.74
2019-06-27T17:35:41.045Z,30.60
2019-06-27T17:38:11.117Z,30.32
2019-06-27T17:40:41.085Z,29.99
2019-06-27T17:43:10.717Z,30.71
2019-06-27T17:45:40.493Z,30.76
2019-06-27T17:48:10.070Z,30.94
2019-06-27T17:50:39.765Z,31.79
2019-06-27T17:53:09.263Z,31.45
2019-06-27T17:55:38.776Z,32.22
2019-06-27T17:58:08.262Z,33.06
2019-06-27T18:00:37.965Z,34.10
2019-06-27T18:03:07.882Z,33.92
2019-06-27T18:05:37.447Z,33.44
2019-06-27T18:08:07.083Z,33.83
2019-06-27T18:10:36.685Z,34.24
2019-06-27T18:13:06.269Z,34.28
2019-06-27T18:15:35.733Z,34.13
2019-06-27T18:18:05.448Z,34.98
2019-06-27T18:20:34.946Z,35.24
2019-06-27T18:23:04.503Z,36.14
2019-06-27T18:25:34.058Z,36.43
2019-06-27T18:28:03.610Z,36.49
2019-06-27T18:30:33.362Z,36.09
2019-06-27T18:33:02.924Z,36.72
2019-06-27T18:35:32.451Z,36.77
2019-06-27T18:38:01.929Z,37.94
2019-06-27T18:40:31.386Z,37.34
2019-06-27T18:43:00.921Z,37.69
2019-06-27T18:45:30.388Z,38.55
2019-06-27T18:50:26.072Z,38.83
2019-06-27T18:52:55.857Z,38.74
2019-06-27T18:55:25.340Z,39.60
2019-06-27T18:57:54.825Z,40.17
2019-06-27T19:00:24.548Z,39.94
2019-06-27T19:02:54.106Z,39.50
2019-06-27T19:05:25.160Z,40.96
2019-06-27T19:07:54.687Z,40.68
2019-06-27T19:10:24.683Z,41.05
2019-06-27T19:12:54.125Z,42.14
2019-06-27T19:15:24.875Z,40.99
2019-06-27T19:17:54.346Z,41.34
2019-06-27T19:20:37.222Z,41.49
2019-06-27T19:23:11.211Z,41.91
2019-06-27T19:25:42.393Z,42.31
2019-06-27T19:28:12.297Z,44.37
2019-06-27T19:30:41.982Z,45.02
2019-06-27T19:33:11.501Z,44.62
2019-06-27T19:35:41.100Z,44.24
2019-06-27T19:38:10.582Z,45.12
2019-06-27T19:40:40.095Z,46.33
2019-06-27T19:43:26.347Z,45.93
2019-06-27T19:45:41.214Z,44.60
2019-06-27T19:48:10.723Z,45.22
2019-06-27T19:50:40.259Z,45.82
2019-06-27T19:53:09.831Z,47.03
2019-06-27T19:55:39.479Z,46.25
2019-06-27T19:58:08.935Z,46.94
2019-06-27T20:00:38.439Z,46.64
2019-06-27T20:03:07.890Z,46.30
2019-06-27T20:05:37.403Z,46.83
2019-06-27T20:08:18.384Z,46.91
2019-06-27T20:10:38.255Z,48.02
2019-06-27T20:13:07.743Z,47.76
2019-06-27T20:15:37.451Z,47.82
2019-06-27T20:18:07.061Z,47.78
2019-06-27T20:20:36.738Z,48.51
2019-06-27T20:23:06.231Z,48.50
2019-06-27T20:25:36.147Z,48.31
2019-06-27T20:28:05.618Z,48.94
2019-06-27T20:30:35.129Z,49.86
2019-06-27T20:33:04.815Z,49.83
2019-06-27T20:35:34.320Z,50.35
2019-06-27T20:38:03.870Z,49.74
2019-06-27T20:40:33.352Z,49.61
2019-06-27T20:43:02.808Z,51.02
2019-06-27T20:45:32.380Z,50.54
2019-06-27T20:48:02.164Z,50.14
2019-06-27T20:50:31.877Z,50.45
2019-06-27T20:53:01.463Z,50.64
2019-06-27T20:55:31.195Z,50.66
2019-06-27T20:58:00.750Z,50.93
2019-06-27T21:00:30.500Z,51.38
2019-06-27T21:03:00.115Z,51.55
2019-06-27T21:05:29.584Z,50.85
2019-06-27T21:07:59.078Z,50.94
2019-06-27T21:10:28.482Z,51.35
2019-06-27T21:12:58.080Z,51.94
2019-06-27T21:15:27.649Z,51.28
2019-06-27T21:17:57.215Z,51.60
2019-06-27T21:20:26.640Z,51.99
2019-06-27T21:22:56.388Z,51.91
2019-06-27T21:25:25.832Z,52.74
2019-06-27T21:27:55.687Z,52.29
2019-06-27T21:30:28.557Z,52.65
2019-06-27T21:33:02.106Z,52.64
2019-06-27T21:35:31.582Z,53.47
2019-06-27T21:38:01.142Z,53.47
2019-06-27T21:40:30.805Z,53.42
2019-06-27T21:43:00.251Z,53.62
2019-06-27T21:45:29.984Z,53.77
2019-06-27T21:47:59.426Z,54.23
2019-06-27T21:50:28.994Z,54.27
2019-06-27T21:52:58.605Z,54.56
2019-06-27T21:55:28.246Z,54.46
2019-06-27T21:57:59.954Z,54.76
2019-06-27T22:00:30.933Z,55.62
2019-06-27T22:03:00.514Z,56.23
2019-06-27T22:05:29.962Z,55.39
2019-06-27T22:07:59.459Z,56.43
2019-06-27T22:10:29.027Z,55.79
2019-06-27T22:12:58.597Z,56.42
2019-06-27T22:15:28.107Z,56.78
2019-06-27T22:17:57.616Z,56.57
2019-06-27T22:20:27.084Z,57.80
2019-06-27T22:22:56.885Z,57.22
2019-06-27T22:25:39.679Z,57.28
2019-06-27T22:27:57.595Z,57.39
2019-06-27T22:30:27.039Z,57.74
2019-06-27T22:32:56.698Z,57.89
2019-06-27T22:35:26.136Z,58.08
2019-06-27T22:38:13.910Z,58.98
2019-06-27T22:41:01.323Z,58.40
2019-06-27T22:43:48.655Z,59.17
2019-06-27T22:46:35.969Z,59.35
2019-06-27T22:49:04.838Z,59.14
2019-06-27T22:51:52.246Z,59.27
2019-06-27T22:54:33.118Z,59.67
2019-06-27T22:57:02.611Z,59.71
2019-06-27T22:59:32.071Z,59.91
2019-06-27T23:02:01.644Z,60.24
2019-06-27T23:04:31.431Z,60.34
2019-06-27T23:07:00.873Z,60.81
2019-06-27T23:09:30.316Z,60.48
2019-06-27T23:11:59.823Z,60.59
2019-06-27T23:14:29.307Z,61.01
2019-06-27T23:16:58.850Z,60.92
2019-06-27T23:19:28.382Z,61.53
2019-06-27T23:21:57.932Z,62.32
2019-06-27T23:24:27.593Z,62.05
2019-06-27T23:26:57.056Z,61.73
2019-06-27T23:29:26.901Z,62.15
2019-06-27T23:31:56.367Z,62.66
2019-06-27T23:34:25.838Z,62.65
2019-06-27T23:36:55.311Z,62.98
2019-06-27T23:39:24.761Z,63.81
2019-06-27T23:41:54.233Z,64.06
2019-06-27T23:44:23.689Z,63.82
2019-06-27T23:46:53.233Z,63.62
2019-06-27T23:49:22.706Z,64.17
2019-06-27T23:51:52.483Z,64.01
2019-06-27T23:54:21.930Z,64.15
2019-06-27T23:56:51.417Z,64.70
2019-06-27T23:59:20.900Z,65.04
